createdAt,value
2019-05-14T00:00:36.561Z,6.50
2019-05-14T00:01:43.390Z,6.40
2019-05-14T00:02:52.050Z,6.50
2019-05-14T00:03:59.390Z,6.40
2019-05-14T00:05:07.736Z,6.50
2019-05-14T00:06:14.793Z,6.50
2019-05-14T00:07:22.473Z,6.40
2019-05-14T00:08:31.436Z,6.40
2019-05-14T00:09:41.264Z,6.40
2019-05-14T00:10:47.956Z,6.40
2019-05-14T00:11:55.792Z,6.40
2019-05-14T00:13:02.619Z,6.40
2019-05-14T00:14:11.607Z,6.40
2019-05-14T00:15:21.498Z,6.30
2019-05-14T00:16:28.300Z,6.40
2019-05-14T00:17:35.861Z,6.40
2019-05-14T00:18:43.337Z,6.50
2019-05-14T00:20:05.880Z,6.40
2019-05-14T00:21:01.451Z,6.30
2019-05-14T00:22:07.702Z,6.40
2019-05-14T00:23:15.489Z,6.40
2019-05-14T00:24:22.250Z,6.40
2019-05-14T00:25:31.278Z,6.30
2019-05-14T00:26:38.592Z,6.30
2019-05-14T00:27:46.067Z,6.30
2019-05-14T00:28:52.817Z,6.30
2019-05-14T00:30:02.413Z,6.40
2019-05-14T00:31:11.967Z,6.40
2019-05-14T00:32:18.731Z,6.40
2019-05-14T00:33:25.954Z,6.30
2019-05-14T00:34:33.469Z,6.30
2019-05-14T00:35:41.324Z,6.30
2019-05-14T00:36:49.222Z,6.30
2019-05-14T00:37:55.964Z,6.30
2019-05-14T00:39:04.307Z,6.20
2019-05-14T00:40:11.923Z,6.10
2019-05-14T00:41:21.503Z,6.10
2019-05-14T00:42:28.520Z,6.10
2019-05-14T00:43:36.105Z,6.10
2019-05-14T00:44:54.478Z,6.10
2019-05-14T00:45:52.494Z,6.10
2019-05-14T00:46:59.235Z,6.20
2019-05-14T00:48:07.062Z,6.10
2019-05-14T00:49:14.129Z,6.10
2019-05-14T00:50:21.764Z,6.10
2019-05-14T00:51:28.934Z,6.00
2019-05-14T00:52:36.474Z,6.00
2019-05-14T00:53:43.230Z,6.00
2019-05-14T00:54:52.177Z,6.00
2019-05-14T00:56:01.908Z,5.90
2019-05-14T00:57:11.576Z,5.90
2019-05-14T00:58:17.832Z,5.80
2019-05-14T00:59:25.643Z,5.80
2019-05-14T01:00:32.739Z,5.80
2019-05-14T01:01:42.262Z,5.70
2019-05-14T01:02:48.703Z,5.70
2019-05-14T01:03:56.709Z,5.70
2019-05-14T01:05:04.471Z,5.70
2019-05-14T01:06:12.312Z,5.70
2019-05-14T01:07:21.137Z,5.60
2019-05-14T01:08:28.595Z,5.60
2019-05-14T01:09:35.391Z,5.50
2019-05-14T01:10:43.179Z,5.50
2019-05-14T01:11:51.262Z,5.50
2019-05-14T01:13:01.156Z,5.40
2019-05-14T01:14:07.771Z,5.30
2019-05-14T01:15:15.529Z,5.40
2019-05-14T01:16:22.520Z,5.30
2019-05-14T01:17:31.490Z,5.20
2019-05-14T01:18:38.578Z,5.20
2019-05-14T01:19:46.093Z,5.20
2019-05-14T01:20:53.247Z,5.10
2019-05-14T01:22:01.750Z,5.10
2019-05-14T01:23:08.679Z,5.10
2019-05-14T01:24:16.158Z,5.10
2019-05-14T01:25:23.865Z,5.10
2019-05-14T01:26:31.375Z,5.10
2019-05-14T01:27:38.550Z,5.10
2019-05-14T01:28:46.077Z,5.00
2019-05-14T01:29:53.026Z,5.10
2019-05-14T01:31:01.227Z,5.00
2019-05-14T01:32:08.724Z,5.00
2019-05-14T01:33:16.202Z,5.00
2019-05-14T01:34:22.967Z,5.00
2019-05-14T01:35:31.545Z,5.00
2019-05-14T01:36:41.190Z,5.00
2019-05-14T01:37:48.437Z,5.00
2019-05-14T01:38:55.626Z,5.00
2019-05-14T01:40:03.739Z,5.00
2019-05-14T01:41:11.820Z,5.00
2019-05-14T01:42:21.613Z,5.00
2019-05-14T01:43:28.708Z,5.00
2019-05-14T01:44:37.113Z,5.00
2019-05-14T01:45:44.221Z,5.00
2019-05-14T01:46:52.008Z,4.90
2019-05-14T01:48:00.999Z,4.90
2019-05-14T01:49:07.935Z,4.90
2019-05-14T01:50:15.757Z,4.90
2019-05-14T01:51:23.386Z,4.90
2019-05-14T01:52:31.801Z,4.90
2019-05-14T01:53:41.490Z,4.90
2019-05-14T01:54:47.893Z,5.00
2019-05-14T01:55:55.500Z,5.00
2019-05-14T01:57:02.327Z,5.00
2019-05-14T01:58:11.498Z,5.00
2019-05-14T01:59:18.482Z,5.00
2019-05-14T02:00:26.571Z,4.90
2019-05-14T02:01:34.269Z,4.90
2019-05-14T02:02:41.969Z,4.90
2019-05-14T02:03:48.767Z,4.90
2019-05-14T02:04:56.321Z,4.80
2019-05-14T02:06:03.077Z,4.80
2019-05-14T02:07:11.568Z,4.80
2019-05-14T02:08:21.298Z,4.80
2019-05-14T02:09:28.521Z,4.80
2019-05-14T02:10:35.267Z,4.70
2019-05-14T02:11:43.095Z,4.70
2019-05-14T02:12:51.600Z,4.60
2019-05-14T02:13:59.243Z,4.60
2019-05-14T02:15:06.247Z,4.50
2019-05-14T02:16:14.089Z,4.50
2019-05-14T02:17:21.413Z,4.50
2019-05-14T02:18:31.128Z,4.50
2019-05-14T02:19:38.173Z,4.50
2019-05-14T02:20:46.573Z,4.40
2019-05-14T02:21:53.334Z,4.40
2019-05-14T02:23:01.603Z,4.40
2019-05-14T02:24:08.590Z,4.40
2019-05-14T02:25:16.666Z,4.40
2019-05-14T02:26:23.767Z,4.40
2019-05-14T02:27:34.888Z,4.40
2019-05-14T02:28:42.006Z,4.40
2019-05-14T02:29:51.660Z,4.40
2019-05-14T02:31:02.748Z,4.40
2019-05-14T02:32:10.433Z,4.40
2019-05-14T02:33:19.096Z,4.30
2019-05-14T02:34:25.540Z,4.30
2019-05-14T02:35:32.331Z,4.30
2019-05-14T02:36:40.293Z,4.40
2019-05-14T02:37:50.211Z,4.40
2019-05-14T02:39:00.120Z,4.40
2019-05-14T02:40:09.617Z,4.40
2019-05-14T02:41:19.264Z,4.40
2019-05-14T02:42:24.439Z,4.40
2019-05-14T02:43:32.033Z,4.40
2019-05-14T02:44:40.904Z,4.40
2019-05-14T02:46:02.123Z,4.50
2019-05-14T02:46:59.183Z,4.50
2019-05-14T02:48:09.441Z,4.50
2019-05-14T02:49:14.681Z,4.40
2019-05-14T02:50:22.566Z,4.40
2019-05-14T02:51:30.183Z,4.40
2019-05-14T02:52:40.191Z,4.30
2019-05-14T02:53:49.585Z,4.30
2019-05-14T02:54:55.901Z,4.30
2019-05-14T02:56:02.789Z,4.30
2019-05-14T02:57:10.995Z,4.30
2019-05-14T02:58:20.622Z,4.30
2019-05-14T02:59:30.177Z,4.30
2019-05-14T03:00:35.896Z,4.20
2019-05-14T03:01:43.363Z,4.30
2019-05-14T03:02:50.124Z,4.30
2019-05-14T03:03:59.868Z,4.40
2019-05-14T03:05:09.539Z,4.50
2019-05-14T03:06:16.033Z,4.50
2019-05-14T03:07:22.871Z,4.50
2019-05-14T03:08:31.149Z,4.50
2019-05-14T03:09:40.303Z,4.50
2019-05-14T03:10:50.209Z,4.50
2019-05-14T03:11:59.310Z,4.50
2019-05-14T03:13:05.742Z,4.50
2019-05-14T03:14:12.491Z,4.50
2019-05-14T03:15:20.338Z,4.50
2019-05-14T03:16:32.584Z,4.50
2019-05-14T03:17:40.047Z,4.50
2019-05-14T03:18:45.742Z,4.40
2019-05-14T03:19:53.435Z,4.40
2019-05-14T03:21:01.217Z,4.40
2019-05-14T03:22:10.116Z,4.50
2019-05-14T03:23:19.629Z,4.50
2019-05-14T03:24:28.860Z,4.60
2019-05-14T03:25:35.432Z,4.60
2019-05-14T03:26:42.941Z,4.60
2019-05-14T03:27:50.351Z,4.50
2019-05-14T03:29:00.093Z,4.50
2019-05-14T03:30:12.650Z,4.50
2019-05-14T03:31:22.135Z,4.50
2019-05-14T03:32:25.568Z,4.50
2019-05-14T03:33:34.429Z,4.50
2019-05-14T03:34:43.767Z,4.40
2019-05-14T03:35:58.851Z,4.40
2019-05-14T03:37:03.171Z,4.40
2019-05-14T03:38:09.829Z,4.40
2019-05-14T03:39:19.112Z,4.50
2019-05-14T03:40:29.157Z,4.40
2019-05-14T03:41:34.678Z,4.40
2019-05-14T03:42:42.577Z,4.40
2019-05-14T03:43:49.730Z,4.40
2019-05-14T03:44:59.770Z,4.40
2019-05-14T03:46:09.467Z,4.40
2019-05-14T03:47:19.386Z,4.30
2019-05-14T03:48:25.098Z,4.30
2019-05-14T03:49:32.886Z,4.30
2019-05-14T03:50:39.981Z,4.20
2019-05-14T03:51:49.725Z,4.20
2019-05-14T03:52:59.485Z,4.20
2019-05-14T03:54:11.333Z,4.20
2019-05-14T03:55:14.723Z,4.20
2019-05-14T03:56:22.527Z,4.10
2019-05-14T03:57:29.430Z,4.10
2019-05-14T03:58:39.315Z,4.20
2019-05-14T03:59:49.598Z,4.10
2019-05-14T04:01:03.030Z,4.10
2019-05-14T04:02:11.739Z,4.10
2019-05-14T04:03:20.000Z,4.20
2019-05-14T04:04:29.874Z,4.20
2019-05-14T04:05:40.070Z,4.30
2019-05-14T04:06:49.612Z,4.30
2019-05-14T04:08:00.096Z,4.40
2019-05-14T04:09:09.649Z,4.50
2019-05-14T04:10:19.493Z,4.70
2019-05-14T04:11:29.624Z,5.00
2019-05-14T04:12:40.488Z,5.30
2019-05-14T04:13:52.505Z,5.60
2019-05-14T04:15:04.348Z,5.90
2019-05-14T04:16:14.707Z,6.20
2019-05-14T04:17:33.637Z,6.50
2019-05-14T04:18:40.186Z,6.70
2019-05-14T04:19:51.168Z,7.00
2019-05-14T04:20:59.808Z,7.10
2019-05-14T04:22:10.238Z,7.30
2019-05-14T04:23:19.850Z,7.50
2019-05-14T04:24:36.443Z,7.50
2019-05-14T04:25:42.294Z,7.80
2019-05-14T04:27:02.238Z,7.90
2019-05-14T04:28:04.479Z,7.90
2019-05-14T04:29:19.435Z,8.00
2019-05-14T04:30:24.697Z,8.10
2019-05-14T04:31:34.376Z,8.10
2019-05-14T04:32:43.539Z,8.10
2019-05-14T04:33:53.211Z,8.10
2019-05-14T04:35:01.632Z,8.00
2019-05-14T04:36:10.100Z,8.00
2019-05-14T04:37:20.047Z,8.00
2019-05-14T04:38:29.947Z,8.10
2019-05-14T04:39:39.271Z,8.20
2019-05-14T04:40:45.775Z,8.50
2019-05-14T04:41:52.961Z,8.80
2019-05-14T04:43:00.490Z,9.20
2019-05-14T04:44:09.739Z,9.50
2019-05-14T04:45:19.684Z,9.70
2019-05-14T04:46:26.108Z,10.10
2019-05-14T04:47:37.590Z,10.00
2019-05-14T04:48:43.844Z,9.90
2019-05-14T04:49:52.134Z,9.70
2019-05-14T04:51:00.547Z,9.40
2019-05-14T04:52:10.116Z,9.00
2019-05-14T04:53:19.535Z,8.60
2019-05-14T04:54:29.874Z,8.30
2019-05-14T04:55:34.854Z,7.90
2019-05-14T04:56:42.798Z,7.70
2019-05-14T04:57:50.400Z,7.40
2019-05-14T04:58:59.711Z,7.30
2019-05-14T05:00:07.084Z,7.20
2019-05-14T05:01:16.364Z,7.10
2019-05-14T05:02:24.850Z,6.90
2019-05-14T05:03:32.661Z,6.90
2019-05-14T05:04:41.093Z,6.80
2019-05-14T05:05:49.940Z,6.80
2019-05-14T05:06:59.287Z,6.80
2019-05-14T05:08:09.025Z,6.80
2019-05-14T05:09:14.977Z,6.80
2019-05-14T05:10:22.507Z,6.80
2019-05-14T05:11:29.528Z,6.80
2019-05-14T05:12:38.715Z,6.90
2019-05-14T05:13:48.717Z,6.80
2019-05-14T05:14:58.465Z,6.80
2019-05-14T05:16:04.529Z,6.80
2019-05-14T05:17:12.833Z,6.80
2019-05-14T05:18:19.790Z,6.80
2019-05-14T05:19:29.053Z,6.80
2019-05-14T05:20:39.240Z,6.80
2019-05-14T05:21:48.097Z,6.90
2019-05-14T05:22:55.088Z,6.90
2019-05-14T05:24:02.564Z,6.90
2019-05-14T05:25:09.527Z,6.90
2019-05-14T05:26:18.451Z,7.00
2019-05-14T05:27:25.444Z,7.10
2019-05-14T05:28:33.140Z,7.10
2019-05-14T05:29:41.839Z,7.10
2019-05-14T05:30:49.470Z,7.10
2019-05-14T05:31:59.014Z,7.20
2019-05-14T05:33:06.064Z,7.20
2019-05-14T05:34:12.948Z,7.20
2019-05-14T05:35:20.833Z,7.30
2019-05-14T05:36:29.026Z,7.40
2019-05-14T05:37:38.476Z,7.40
2019-05-14T05:38:45.445Z,7.50
2019-05-14T05:39:52.976Z,7.40
2019-05-14T05:41:00.481Z,7.50
2019-05-14T05:42:09.381Z,7.50
2019-05-14T05:43:19.009Z,7.50
2019-05-14T05:44:28.535Z,7.60
2019-05-14T05:45:34.901Z,7.70
2019-05-14T05:46:43.283Z,7.70
2019-05-14T05:47:57.770Z,7.80
2019-05-14T05:49:00.417Z,7.80
2019-05-14T05:50:08.807Z,8.00
2019-05-14T05:51:18.665Z,8.00
2019-05-14T05:52:25.157Z,8.00
2019-05-14T05:53:33.448Z,8.10
2019-05-14T05:54:40.725Z,8.10
2019-05-14T05:55:49.208Z,8.10
2019-05-14T05:56:58.140Z,8.20
2019-05-14T05:58:05.888Z,8.20
2019-05-14T05:59:13.032Z,8.30
2019-05-14T06:00:53.741Z,8.40
2019-05-14T06:02:00.818Z,8.40
2019-05-14T06:03:10.687Z,8.50
2019-05-14T06:04:18.255Z,8.60
2019-05-14T06:05:25.942Z,8.60
2019-05-14T06:06:32.986Z,8.60
2019-05-14T06:07:40.479Z,8.70
2019-05-14T06:08:49.173Z,8.70
2019-05-14T06:09:58.637Z,8.70
2019-05-14T06:11:05.314Z,8.80
2019-05-14T06:12:12.999Z,8.90
2019-05-14T06:13:19.836Z,9.00
2019-05-14T06:14:29.170Z,8.90
2019-05-14T06:15:45.676Z,8.90
2019-05-14T06:16:45.505Z,9.00
2019-05-14T06:17:52.565Z,9.00
2019-05-14T06:19:00.445Z,9.00
2019-05-14T06:20:08.611Z,9.10
2019-05-14T06:21:18.710Z,9.20
2019-05-14T06:22:25.083Z,9.20
2019-05-14T06:23:32.991Z,9.20
2019-05-14T06:24:39.780Z,9.20
2019-05-14T06:25:49.134Z,9.20
2019-05-14T06:26:58.375Z,9.20
2019-05-14T06:28:04.985Z,9.20
2019-05-14T06:29:12.153Z,9.20
2019-05-14T06:30:36.251Z,9.20
2019-05-14T06:31:43.041Z,9.30
2019-05-14T06:32:51.322Z,9.30
2019-05-14T06:33:59.124Z,9.40
2019-05-14T06:35:08.795Z,9.50
2019-05-14T06:36:19.110Z,9.50
2019-05-14T06:37:25.221Z,9.50
2019-05-14T06:38:32.739Z,9.40
2019-05-14T06:39:40.331Z,9.40
2019-05-14T06:40:48.918Z,9.30
2019-05-14T06:41:58.520Z,9.30
2019-05-14T06:43:05.151Z,9.30
2019-05-14T06:44:12.623Z,9.30
2019-05-14T06:45:20.127Z,9.40
2019-05-14T06:46:28.409Z,9.40
2019-05-14T06:47:35.316Z,9.50
2019-05-14T06:48:42.798Z,9.50
2019-05-14T06:49:49.553Z,9.50
2019-05-14T06:50:58.298Z,9.60
2019-05-14T06:52:08.454Z,9.60
2019-05-14T06:53:15.313Z,9.60
2019-05-14T06:54:22.044Z,9.70
2019-05-14T06:55:29.523Z,9.70
2019-05-14T06:56:38.518Z,9.70
2019-05-14T06:57:47.883Z,9.80
2019-05-14T06:58:54.074Z,9.80
2019-05-14T07:00:01.911Z,9.90
2019-05-14T07:01:09.627Z,9.90
2019-05-14T07:02:19.397Z,10.00
2019-05-14T07:03:28.104Z,10.00
2019-05-14T07:04:39.210Z,10.00
2019-05-14T07:05:45.516Z,10.10
2019-05-14T07:06:53.001Z,10.20
2019-05-14T07:07:59.887Z,10.30
2019-05-14T07:09:09.275Z,10.40
2019-05-14T07:10:19.450Z,10.50
2019-05-14T07:11:26.010Z,10.60
2019-05-14T07:12:33.064Z,10.60
2019-05-14T07:13:40.943Z,10.70
2019-05-14T07:14:48.241Z,10.70
2019-05-14T07:15:58.335Z,10.70
2019-05-14T07:17:04.914Z,10.70
2019-05-14T07:18:12.393Z,10.70
2019-05-14T07:19:19.336Z,10.70
2019-05-14T07:20:28.306Z,10.70
2019-05-14T07:21:35.433Z,10.70
2019-05-14T07:22:43.484Z,10.70
2019-05-14T07:23:50.339Z,10.70
2019-05-14T07:24:58.673Z,10.70
2019-05-14T07:26:08.126Z,10.70
2019-05-14T07:27:15.226Z,10.80
2019-05-14T07:28:22.283Z,10.80
2019-05-14T07:29:29.778Z,10.80
2019-05-14T07:30:39.325Z,10.90
2019-05-14T07:31:48.740Z,10.90
2019-05-14T07:32:55.003Z,11.00
2019-05-14T07:34:02.573Z,11.00
2019-05-14T07:35:11.240Z,11.00
2019-05-14T07:36:19.411Z,11.00
2019-05-14T07:37:28.434Z,11.00
2019-05-14T07:38:35.671Z,11.00
2019-05-14T07:39:42.776Z,11.00
2019-05-14T07:40:51.123Z,11.10
2019-05-14T07:41:59.127Z,11.10
2019-05-14T07:43:08.988Z,11.30
2019-05-14T07:44:18.198Z,11.40
2019-05-14T07:45:25.708Z,11.30
2019-05-14T07:46:32.740Z,11.40
2019-05-14T07:47:40.258Z,11.30
2019-05-14T07:49:03.982Z,11.30
2019-05-14T07:49:58.238Z,11.30
2019-05-14T07:51:05.217Z,11.40
2019-05-14T07:52:13.045Z,11.50
2019-05-14T07:53:19.766Z,11.60
2019-05-14T07:54:28.301Z,11.70
2019-05-14T07:55:35.307Z,11.70
2019-05-14T07:56:43.603Z,11.80
2019-05-14T07:57:50.668Z,11.70
2019-05-14T07:59:01.930Z,11.80
2019-05-14T08:00:08.168Z,11.80
2019-05-14T08:01:15.751Z,11.80
2019-05-14T08:02:22.543Z,11.80
2019-05-14T08:03:30.402Z,11.80
2019-05-14T08:04:38.116Z,11.80
2019-05-14T08:05:48.228Z,11.90
2019-05-14T08:06:54.991Z,11.90
2019-05-14T08:08:02.793Z,12.00
2019-05-14T08:09:10.900Z,11.90
2019-05-14T08:10:20.041Z,11.90
2019-05-14T08:11:28.092Z,11.80
2019-05-14T08:12:36.012Z,11.90
2019-05-14T08:13:43.072Z,12.00
2019-05-14T08:15:11.030Z,12.00
2019-05-14T08:16:00.015Z,12.00
2019-05-14T08:17:08.644Z,12.00
2019-05-14T08:18:15.635Z,12.00
2019-05-14T08:19:27.127Z,12.00
2019-05-14T08:20:31.609Z,12.10
2019-05-14T08:21:39.617Z,12.10
2019-05-14T08:22:48.839Z,12.30
2019-05-14T08:23:59.121Z,12.40
2019-05-14T08:25:05.150Z,12.50
2019-05-14T08:26:12.941Z,12.60
2019-05-14T08:27:19.712Z,12.80
2019-05-14T08:28:28.993Z,12.80
2019-05-14T08:29:39.117Z,12.70
2019-05-14T08:30:44.906Z,12.70
2019-05-14T08:31:51.684Z,12.60
2019-05-14T08:32:59.262Z,12.60
2019-05-14T08:34:09.029Z,12.50
2019-05-14T08:35:18.414Z,12.60
2019-05-14T08:36:24.511Z,12.70
2019-05-14T08:37:32.532Z,12.60
2019-05-14T08:38:39.631Z,12.50
2019-05-14T08:39:48.602Z,12.60
2019-05-14T08:40:55.663Z,12.60
2019-05-14T08:42:04.400Z,12.70
2019-05-14T08:43:11.483Z,12.80
2019-05-14T08:44:19.867Z,12.90
2019-05-14T08:45:28.373Z,13.00
2019-05-14T08:46:36.129Z,13.10
2019-05-14T08:47:42.976Z,13.00
2019-05-14T08:48:50.455Z,13.00
2019-05-14T08:49:59.949Z,13.10
2019-05-14T08:51:09.117Z,13.10
2019-05-14T08:52:16.229Z,13.20
2019-05-14T08:53:24.106Z,13.30
2019-05-14T08:54:30.838Z,13.40
2019-05-14T08:55:38.473Z,13.50
2019-05-14T08:56:45.225Z,13.40
2019-05-14T08:57:52.754Z,13.30
2019-05-14T08:58:59.539Z,13.20
2019-05-14T09:00:13.673Z,13.10
2019-05-14T09:01:19.405Z,13.00
2019-05-14T09:02:28.497Z,12.90
2019-05-14T09:03:34.494Z,12.80
2019-05-14T09:04:43.774Z,12.70
2019-05-14T09:05:51.297Z,12.70
2019-05-14T09:06:58.796Z,12.70
2019-05-14T09:08:05.961Z,12.70
2019-05-14T09:09:14.098Z,12.80
2019-05-14T09:10:21.124Z,13.00
2019-05-14T09:11:35.411Z,13.10
2019-05-14T09:12:38.889Z,13.20
2019-05-14T09:13:49.057Z,13.10
2019-05-14T09:14:55.690Z,13.10
2019-05-14T09:16:04.080Z,13.10
2019-05-14T09:17:14.659Z,13.00
2019-05-14T09:18:20.703Z,12.90
2019-05-14T09:19:28.730Z,12.90
2019-05-14T09:20:38.144Z,12.90
2019-05-14T09:21:45.014Z,12.90
2019-05-14T09:22:53.240Z,12.90
2019-05-14T09:23:59.981Z,13.00
2019-05-14T09:25:08.495Z,13.20
2019-05-14T09:26:15.379Z,13.30
2019-05-14T09:27:23.453Z,13.40
2019-05-14T09:28:30.564Z,13.40
2019-05-14T09:29:39.468Z,13.40
2019-05-14T09:30:48.702Z,13.60
2019-05-14T09:31:58.903Z,13.80
2019-05-14T09:33:08.538Z,13.80
2019-05-14T09:34:19.442Z,13.80
2019-05-14T09:35:25.656Z,13.70
2019-05-14T09:36:33.225Z,13.70
2019-05-14T09:37:40.081Z,13.60
2019-05-14T09:38:49.148Z,13.50
2019-05-14T09:39:58.420Z,13.40
2019-05-14T09:41:14.217Z,13.30
2019-05-14T09:42:14.158Z,13.30
2019-05-14T09:43:21.620Z,13.30
2019-05-14T09:44:29.407Z,13.40
2019-05-14T09:45:38.811Z,13.40
2019-05-14T09:46:45.671Z,13.30
2019-05-14T09:47:53.148Z,13.30
2019-05-14T09:48:59.893Z,13.40
2019-05-14T09:50:29.248Z,13.40
2019-05-14T09:51:38.135Z,13.50
2019-05-14T09:52:45.981Z,13.50
2019-05-14T09:53:53.084Z,13.50
2019-05-14T09:55:00.956Z,13.50
2019-05-14T09:56:09.123Z,13.40
2019-05-14T09:57:18.908Z,13.30
2019-05-14T09:58:28.011Z,13.20
2019-05-14T09:59:35.159Z,13.20
2019-05-14T10:00:41.879Z,13.30
2019-05-14T10:01:50.694Z,13.50
2019-05-14T10:02:59.657Z,13.60
2019-05-14T10:04:09.189Z,13.60
2019-05-14T10:05:19.485Z,13.70
2019-05-14T10:06:28.430Z,13.70
2019-05-14T10:07:35.858Z,13.80
2019-05-14T10:08:43.741Z,13.80
2019-05-14T10:09:50.471Z,13.70
2019-05-14T10:11:00.258Z,13.60
2019-05-14T10:12:08.912Z,13.60
2019-05-14T10:13:16.454Z,13.60
2019-05-14T10:14:23.194Z,13.70
2019-05-14T10:15:30.661Z,13.70
2019-05-14T10:16:38.668Z,13.80
2019-05-14T10:17:49.797Z,13.90
2019-05-14T10:18:55.124Z,13.90
2019-05-14T10:20:02.596Z,13.80
2019-05-14T10:21:09.696Z,13.90
2019-05-14T10:22:19.780Z,13.80
2019-05-14T10:23:28.153Z,13.90
2019-05-14T10:24:35.334Z,13.90
2019-05-14T10:25:42.597Z,13.90
2019-05-14T10:26:50.288Z,14.00
2019-05-14T10:27:59.040Z,14.20
2019-05-14T10:29:08.520Z,14.40
2019-05-14T10:30:17.979Z,14.50
2019-05-14T10:31:25.062Z,14.60
2019-05-14T10:32:32.238Z,14.70
2019-05-14T10:33:39.814Z,14.80
2019-05-14T10:34:48.548Z,14.80
2019-05-14T10:35:58.744Z,14.80
2019-05-14T10:37:04.989Z,14.70
2019-05-14T10:38:13.204Z,14.70
2019-05-14T10:39:20.657Z,14.70
2019-05-14T10:40:29.220Z,14.80
2019-05-14T10:41:38.519Z,14.80
2019-05-14T10:42:49.227Z,14.80
2019-05-14T10:43:54.582Z,14.70
2019-05-14T10:45:02.194Z,14.70
2019-05-14T10:46:09.289Z,14.70
2019-05-14T10:47:18.830Z,14.60
2019-05-14T10:48:25.575Z,14.70
2019-05-14T10:49:33.540Z,14.80
2019-05-14T10:50:56.130Z,14.80
2019-05-14T10:51:49.931Z,14.90
2019-05-14T10:52:59.850Z,15.00
2019-05-14T10:54:21.240Z,15.10
2019-05-14T10:55:18.419Z,15.10
2019-05-14T10:56:26.076Z,15.10
2019-05-14T10:57:32.815Z,15.10
2019-05-14T10:58:40.350Z,15.20
2019-05-14T10:59:47.194Z,15.20
2019-05-14T11:00:55.090Z,15.20
2019-05-14T11:02:02.158Z,15.20
2019-05-14T11:03:09.649Z,15.30
2019-05-14T11:04:18.822Z,15.40
2019-05-14T11:05:27.997Z,15.30
2019-05-14T11:06:34.637Z,15.40
2019-05-14T11:07:42.489Z,15.40
2019-05-14T11:08:49.560Z,15.40
2019-05-14T11:09:57.096Z,15.50
2019-05-14T11:11:05.123Z,15.50
2019-05-14T11:12:13.073Z,15.50
2019-05-14T11:13:20.245Z,15.50
2019-05-14T11:14:31.822Z,15.60
2019-05-14T11:15:39.266Z,15.70
2019-05-14T11:16:45.734Z,15.70
2019-05-14T11:17:52.473Z,15.70
2019-05-14T11:18:59.955Z,15.80
2019-05-14T11:20:09.061Z,15.90
2019-05-14T11:21:23.055Z,15.90
2019-05-14T11:22:25.357Z,15.90
2019-05-14T11:23:33.167Z,16.00
2019-05-14T11:24:40.021Z,15.90
2019-05-14T11:25:48.714Z,15.90
2019-05-14T11:26:55.687Z,15.80
2019-05-14T11:28:03.625Z,16.00
2019-05-14T11:29:10.701Z,16.10
2019-05-14T11:30:19.461Z,16.20
2019-05-14T11:31:26.311Z,16.30
2019-05-14T11:32:34.616Z,16.20
2019-05-14T11:33:41.319Z,16.10
2019-05-14T11:34:48.878Z,16.00
2019-05-14T11:35:58.324Z,15.90
2019-05-14T11:37:08.371Z,15.90
2019-05-14T11:38:28.359Z,15.90
2019-05-14T11:39:23.927Z,16.00
2019-05-14T11:40:30.645Z,16.00
2019-05-14T11:41:39.062Z,16.10
2019-05-14T11:42:49.296Z,16.30
2019-05-14T11:43:55.750Z,16.30
2019-05-14T11:45:02.489Z,16.50
2019-05-14T11:46:10.093Z,16.60
2019-05-14T11:47:18.159Z,16.70
2019-05-14T11:48:25.738Z,16.70
2019-05-14T11:49:32.705Z,16.90
2019-05-14T11:50:40.393Z,16.80
2019-05-14T11:52:00.919Z,16.60
2019-05-14T11:52:58.538Z,16.50
2019-05-14T11:54:09.247Z,16.40
2019-05-14T11:55:18.647Z,16.20
2019-05-14T11:56:24.867Z,16.20
2019-05-14T11:57:32.335Z,16.30
2019-05-14T11:58:39.520Z,16.20
2019-05-14T11:59:46.987Z,16.20
2019-05-14T12:00:53.807Z,16.00
2019-05-14T12:02:01.295Z,16.00
2019-05-14T12:03:09.222Z,16.00
2019-05-14T12:04:18.818Z,16.10
2019-05-14T12:05:25.821Z,16.20
2019-05-14T12:06:33.777Z,16.40
2019-05-14T12:07:40.544Z,16.50
2019-05-14T12:08:48.038Z,16.60
2019-05-14T12:09:55.104Z,16.80
2019-05-14T12:11:02.601Z,17.00
2019-05-14T12:12:12.345Z,17.10
2019-05-14T12:13:19.455Z,17.10
2019-05-14T12:14:26.305Z,17.20
2019-05-14T12:15:34.020Z,17.10
2019-05-14T12:16:40.903Z,17.00
2019-05-14T12:17:51.037Z,17.00
2019-05-14T12:18:59.073Z,16.80
2019-05-14T12:20:06.705Z,16.80
2019-05-14T12:21:13.459Z,16.70
2019-05-14T12:22:21.062Z,16.50
2019-05-14T12:23:29.824Z,16.50
2019-05-14T12:24:38.790Z,16.50
2019-05-14T12:25:48.897Z,16.50
2019-05-14T12:26:55.362Z,16.60
2019-05-14T12:28:02.177Z,16.70
2019-05-14T12:29:10.142Z,16.60
2019-05-14T12:30:19.693Z,16.50
2019-05-14T12:31:28.967Z,16.50
2019-05-14T12:32:39.191Z,16.50
2019-05-14T12:33:45.665Z,16.40
2019-05-14T12:34:53.115Z,16.40
2019-05-14T12:36:00.819Z,16.50
2019-05-14T12:37:09.130Z,16.50
2019-05-14T12:38:18.759Z,16.50
2019-05-14T12:39:25.756Z,16.40
2019-05-14T12:40:33.289Z,16.40
2019-05-14T12:41:40.024Z,16.60
2019-05-14T12:42:49.616Z,16.70
2019-05-14T12:43:58.796Z,16.60
2019-05-14T12:45:06.099Z,16.60
2019-05-14T12:46:13.247Z,16.60
2019-05-14T12:47:20.760Z,16.70
2019-05-14T12:48:29.792Z,16.80
2019-05-14T12:49:38.901Z,16.80
2019-05-14T12:50:48.656Z,16.80
2019-05-14T12:51:55.041Z,16.90
2019-05-14T12:53:02.181Z,17.00
2019-05-14T12:54:09.674Z,17.00
2019-05-14T12:55:19.786Z,17.20
2019-05-14T12:56:29.436Z,17.30
2019-05-14T12:57:39.025Z,17.40
2019-05-14T12:58:46.044Z,17.30
2019-05-14T12:59:53.066Z,17.20
2019-05-14T13:01:01.246Z,17.00
2019-05-14T13:02:09.715Z,17.00
2019-05-14T13:03:19.078Z,16.90
2019-05-14T13:04:28.427Z,16.90
2019-05-14T13:05:35.564Z,16.90
2019-05-14T13:06:43.175Z,16.90
2019-05-14T13:07:51.300Z,17.00
2019-05-14T13:08:58.640Z,17.00
2019-05-14T13:10:08.982Z,17.10
2019-05-14T13:11:15.707Z,17.10
2019-05-14T13:12:23.222Z,17.10
2019-05-14T13:13:30.377Z,17.10
2019-05-14T13:14:39.539Z,17.00
2019-05-14T13:15:48.418Z,17.00
2019-05-14T13:16:56.211Z,17.10
2019-05-14T13:18:02.929Z,17.00
2019-05-14T13:19:10.841Z,17.00
2019-05-14T13:20:18.674Z,17.00
2019-05-14T13:21:28.765Z,17.10
2019-05-14T13:22:42.406Z,17.00
2019-05-14T13:23:44.754Z,17.20
2019-05-14T13:24:51.496Z,17.20
2019-05-14T13:25:59.611Z,17.20
2019-05-14T13:27:06.428Z,17.10
2019-05-14T13:28:14.363Z,17.10
2019-05-14T13:29:21.824Z,17.00
2019-05-14T13:30:29.944Z,17.10
2019-05-14T13:31:36.918Z,17.10
2019-05-14T13:32:44.462Z,17.20
2019-05-14T13:33:52.014Z,17.20
2019-05-14T13:35:00.216Z,17.20
2019-05-14T13:36:07.178Z,17.30
2019-05-14T13:37:14.989Z,17.40
2019-05-14T13:38:21.845Z,17.40
2019-05-14T13:39:29.299Z,17.60
2019-05-14T13:40:36.069Z,17.60
2019-05-14T13:41:43.683Z,17.70
2019-05-14T13:42:50.428Z,17.70
2019-05-14T13:43:58.712Z,17.70
2019-05-14T13:45:06.437Z,17.80
2019-05-14T13:46:15.205Z,17.90
2019-05-14T13:47:22.239Z,17.90
2019-05-14T13:48:30.134Z,17.80
2019-05-14T13:49:39.072Z,17.90
2019-05-14T13:50:48.966Z,17.80
2019-05-14T13:51:54.582Z,17.80
2019-05-14T13:53:09.407Z,17.70
2019-05-14T13:54:11.708Z,17.70
2019-05-14T13:55:19.672Z,17.60
2019-05-14T13:56:28.373Z,17.50
2019-05-14T13:57:39.485Z,17.40
2019-05-14T13:58:45.314Z,17.30
2019-05-14T13:59:52.790Z,17.20
2019-05-14T14:00:59.725Z,17.20
2019-05-14T14:02:09.857Z,17.20
2019-05-14T14:03:19.658Z,17.20
2019-05-14T14:04:25.531Z,17.30
2019-05-14T14:05:32.279Z,17.50
2019-05-14T14:06:40.568Z,17.60
2019-05-14T14:07:48.628Z,17.70
2019-05-14T14:08:59.105Z,17.70
2019-05-14T14:10:05.445Z,17.70
2019-05-14T14:11:13.057Z,17.60
2019-05-14T14:12:20.288Z,17.60
2019-05-14T14:13:28.567Z,17.60
2019-05-14T14:14:38.594Z,17.60
2019-05-14T14:15:45.837Z,17.60
2019-05-14T14:16:52.556Z,17.60
2019-05-14T14:18:00.726Z,17.70
2019-05-14T14:19:08.742Z,17.80
2019-05-14T14:20:19.343Z,17.90
2019-05-14T14:21:25.559Z,17.90
2019-05-14T14:22:33.167Z,18.00
2019-05-14T14:23:39.979Z,18.20
2019-05-14T14:24:48.709Z,18.10
2019-05-14T14:25:59.289Z,18.20
2019-05-14T14:27:05.305Z,18.30
2019-05-14T14:28:12.420Z,18.20
2019-05-14T14:29:20.220Z,18.20
2019-05-14T14:30:28.533Z,17.90
2019-05-14T14:31:36.537Z,17.90
2019-05-14T14:32:43.330Z,17.90
2019-05-14T14:33:51.128Z,17.80
2019-05-14T14:34:58.969Z,17.80
2019-05-14T14:36:07.190Z,18.10
2019-05-14T14:37:14.130Z,18.10
2019-05-14T14:38:21.955Z,18.00
2019-05-14T14:39:28.764Z,18.00
2019-05-14T14:40:39.368Z,18.00
2019-05-14T14:41:45.341Z,18.20
2019-05-14T14:42:53.240Z,18.20
2019-05-14T14:44:00.344Z,18.20
2019-05-14T14:45:08.834Z,18.40
2019-05-14T14:46:16.021Z,18.50
2019-05-14T14:47:23.753Z,18.30
2019-05-14T14:48:30.739Z,18.30
2019-05-14T14:49:43.185Z,18.20
2019-05-14T14:50:49.847Z,18.20
2019-05-14T14:51:58.965Z,18.40